Time;durP1;ratioP1;P1;durP2;ratioP2;P2;SDS_P1;SDS_P2;PMS_P1;PMS_P2;Temp;Humidity;BMP_temperature;BMP_pressure;BME280_temperature;BME280_humidity;BME280_pressure;Samples;Min_cycle;Max_cycle;Signal;HPM_P1;HPM_P2
2024/01/14 20:42:02;;;;;;;10.13;4.53;;;18.90;48.50;;;;;;5157158;27;20939;-57
2024/01/14 20:44:29;;;;;;;8.93;4.20;;;18.90;50.50;;;;;;5146683;22;20048;-54
2024/01/14 20:46:55;;;;;;;8.82;4.50;;;19.00;50.60;;;;;;5050128;28;20390;-49
2024/01/14 20:49:21;;;;;;;12.10;4.32;;;19.00;50.60;;;;;;5085390;28;20067;-56
2024/01/14 20:51:46;;;;;;;9.52;4.35;;;19.00;50.40;;;;;;5066651;28;20048;-57
2024/01/14 20:54:12;;;;;;;9.18;4.57;;;19.00;50.40;;;;;;5085069;28;20059;-56
2024/01/14 20:56:39;;;;;;;7.43;4.43;;;19.00;50.40;;;;;;5085351;28;20047;-58
2024/01/14 20:59:06;;;;;;;13.82;4.20;;;19.00;50.60;;;;;;5085164;28;20099;-56
2024/01/14 21:01:36;;;;;;;12.95;4.35;;;19.00;51.10;;;;;;5084540;28;20032;-57
2024/01/14 21:04:02;;;;;;;23.38;5.68;;;19.10;51.80;;;;;;5083817;28;20092;-58
2024/01/14 21:06:31;;;;;;;15.98;5.88;;;19.10;51.00;;;;;;5083888;28;20036;-56
2024/01/14 21:08:57;;;;;;;8.10;4.05;;;19.10;50.40;;;;;;5084001;28;20483;-54
2024/01/14 21:11:24;;;;;;;11.57;4.15;;;19.10;50.10;;;;;;5047803;28;20138;-56
2024/01/14 21:13:51;;;;;;;8.02;4.43;;;19.10;49.90;;;;;;5066864;28;20064;-58
2024/01/14 21:16:17;;;;;;;9.13;4.00;;;19.20;50.40;;;;;;5085295;28;20391;-58
2024/01/14 21:18:43;;;;;;;7.85;4.22;;;19.10;49.60;;;;;;5085062;28;20069;-56
2024/01/14 21:21:15;;;;;;;8.55;4.43;;;19.10;49.60;;;;;;5084139;28;20507;-56
2024/01/14 21:23:41;;;;;;;8.25;4.15;;;19.10;49.50;;;;;;5084834;28;20189;-56
2024/01/14 21:26:07;;;;;;;6.78;4.07;;;19.10;49.50;;;;;;5084727;28;20025;-58
2024/01/14 21:28:33;;;;;;;10.02;4.30;;;19.10;49.30;;;;;;5066563;28;20485;-58
2024/01/14 21:31:00;;;;;;;8.35;4.20;;;19.10;49.50;;;;;;5084414;28;20051;-58
2024/01/14 21:33:26;;;;;;;9.27;4.60;;;19.10;49.40;;;;;;5085186;28;20482;-57
2024/01/14 21:35:52;;;;;;;8.77;3.97;;;19.10;49.40;;;;;;5084719;28;20037;-56
2024/01/14 21:38:18;;;;;;;8.55;4.50;;;19.10;49.40;;;;;;5066284;28;20080;-55
2024/01/14 21:40:44;;;;;;;6.32;3.80;;;19.10;49.30;;;;;;5083998;28;20024;-56
2024/01/14 21:43:10;;;;;;;7.93;4.00;;;19.10;49.30;;;;;;5070644;28;20036;-56
2024/01/14 21:45:36;;;;;;;8.30;4.22;;;19.10;49.30;;;;;;5052830;28;20033;-58
2024/01/14 21:48:02;;;;;;;5.85;3.90;;;19.00;49.10;;;;;;5070728;28;20074;-55
2024/01/14 21:50:28;;;;;;;9.15;4.13;;;19.00;49.10;;;;;;5052206;28;20036;-55
2024/01/14 21:52:54;;;;;;;6.15;4.07;;;19.00;49.10;;;;;;5070241;28;20028;-57
2024/01/14 21:55:22;;;;;;;10.48;3.88;;;19.00;49.10;;;;;;5052530;28;20031;-55
2024/01/14 21:57:48;;;;;;;6.32;3.78;;;19.00;49.20;;;;;;5070150;28;20079;-56
2024/01/14 22:00:14;;;;;;;7.63;3.95;;;19.10;49.20;;;;;;5070300;28;20033;-56
2024/01/14 22:02:40;;;;;;;6.43;3.88;;;19.00;48.80;;;;;;5070381;28;20040;-59
2024/01/14 22:05:06;;;;;;;7.95;4.18;;;19.00;48.90;;;;;;5052452;28;20407;-58
2024/01/14 22:07:32;;;;;;;6.63;3.80;;;19.00;49.20;;;;;;5049429;28;20029;-56
2024/01/14 22:09:58;;;;;;;8.00;4.07;;;19.00;49.00;;;;;;5049352;28;20040;-56
2024/01/14 22:12:24;;;;;;;5.25;3.55;;;19.00;49.00;;;;;;5032203;28;20029;-54
2024/01/14 22:14:51;;;;;;;7.07;3.85;;;19.00;49.00;;;;;;5050433;28;20057;-56
2024/01/14 22:17:16;;;;;;;5.20;3.30;;;19.00;49.00;;;;;;5061957;28;20450;-57
2024/01/14 22:19:43;;;;;;;7.15;3.88;;;19.00;48.90;;;;;;5052463;28;20024;-56
2024/01/14 22:22:11;;;;;;;7.50;3.83;;;19.00;48.90;;;;;;5069831;28;20028;-58
2024/01/14 22:24:40;;;;;;;9.38;4.43;;;18.90;48.90;;;;;;5062641;28;20122;-58
2024/01/14 22:27:06;;;;;;;5.82;3.35;;;18.90;48.80;;;;;;5080164;28;20031;-61
2024/01/14 22:29:31;;;;;;;12.10;4.07;;;19.00;49.90;;;;;;5070488;28;20033;-59
2024/01/14 22:31:57;;;;;;;10.93;5.00;;;19.10;49.80;;;;;;5052469;28;20360;-54
2024/01/14 22:34:24;;;;;;;14.75;4.05;;;19.10;49.20;;;;;;5074708;28;20016;-55
2024/01/14 22:36:50;;;;;;;8.65;3.55;;;19.10;49.80;;;;;;5083444;28;20402;-47
2024/01/14 22:39:18;;;;;;;8.63;3.92;;;19.20;49.60;;;;;;5072061;28;20023;-54
2024/01/14 22:41:44;;;;;;;7.15;3.63;;;19.20;49.40;;;;;;5082309;28;20021;-49
2024/01/14 22:44:11;;;;;;;12.15;4.05;;;19.20;49.40;;;;;;5070419;28;20050;-50
2024/01/14 22:46:37;;;;;;;8.55;3.30;;;19.20;50.40;;;;;;5071702;28;20021;-55
2024/01/14 22:49:03;;;;;;;9.85;3.97;;;19.20;49.80;;;;;;5069927;28;20220;-49
2024/01/14 22:51:29;;;;;;;11.85;3.80;;;19.20;49.40;;;;;;5069022;28;20036;-52
2024/01/14 22:53:54;;;;;;;7.68;3.53;;;19.10;49.60;;;;;;5079865;28;20021;-55
2024/01/14 22:56:20;;;;;;;9.65;3.88;;;19.20;49.60;;;;;;5071678;28;20590;-50
2024/01/14 22:58:46;;;;;;;7.68;3.53;;;19.10;49.80;;;;;;5069486;28;20148;-50
2024/01/14 23:01:15;;;;;;;8.50;3.70;;;19.10;49.80;;;;;;5069294;28;20034;-52
2024/01/14 23:03:42;;;;;;;16.93;3.60;;;19.10;49.70;;;;;;5067723;28;20028;-57
2024/01/14 23:06:14;;;;;;;8.32;4.35;;;19.00;49.70;;;;;;5067771;28;20480;-53
2024/01/14 23:08:40;;;;;;;9.18;3.70;;;19.00;49.60;;;;;;5048827;28;20029;-52
2024/01/14 23:11:05;;;;;;;11.00;3.80;;;19.00;49.80;;;;;;5065890;28;20506;-53
2024/01/14 23:13:31;;;;;;;7.35;3.70;;;19.00;50.10;;;;;;5067592;28;20008;-53
2024/01/14 23:15:57;;;;;;;6.22;3.33;;;19.00;50.10;;;;;;5069534;28;20383;-49
2024/01/14 23:18:23;;;;;;;11.70;3.70;;;19.00;50.00;;;;;;5068776;28;20398;-56
2024/01/14 23:20:48;;;;;;;7.68;3.55;;;19.00;50.00;;;;;;5068825;28;20047;-50
2024/01/14 23:23:14;;;;;;;12.00;4.25;;;19.00;49.80;;;;;;5068579;28;20025;-54
2024/01/14 23:25:40;;;;;;;5.60;3.40;;;19.00;50.50;;;;;;5051436;28;20028;-50
2024/01/14 23:28:06;;;;;;;7.07;3.30;;;19.00;50.20;;;;;;5050790;28;20253;-57
2024/01/14 23:30:32;;;;;;;8.07;3.30;;;19.00;50.30;;;;;;5068040;28;20131;-55
2024/01/14 23:32:59;;;;;;;6.22;3.13;;;19.00;50.00;;;;;;5068719;28;20539;-53
2024/01/14 23:35:25;;;;;;;7.75;3.13;;;19.00;49.90;;;;;;5068933;28;20036;-55
2024/01/14 23:37:51;;;;;;;5.97;3.28;;;19.00;49.90;;;;;;5067275;28;20436;-51
2024/01/14 23:40:17;;;;;;;6.75;3.30;;;19.00;49.90;;;;;;5068585;28;20086;-53
2024/01/14 23:42:42;;;;;;;5.10;3.28;;;19.00;50.00;;;;;;5052103;28;20028;-52
2024/01/14 23:45:08;;;;;;;9.32;3.47;;;19.00;49.80;;;;;;5068259;28;20400;-49
2024/01/14 23:47:34;;;;;;;6.65;3.00;;;19.00;49.80;;;;;;5066884;28;20024;-53
2024/01/14 23:50:00;;;;;;;5.20;2.78;;;19.00;50.20;;;;;;5067978;28;20031;-57
2024/01/14 23:52:26;;;;;;;4.80;3.03;;;19.00;50.00;;;;;;5073857;28;20036;-58
2024/01/14 23:54:52;;;;;;;5.15;3.38;;;19.00;49.80;;;;;;5069942;28;20039;-54
2024/01/14 23:57:17;;;;;;;4.97;3.30;;;19.00;50.20;;;;;;5068275;28;20017;-56
2024/01/14 23:59:43;;;;;;;7.85;3.35;;;19.00;49.90;;;;;;5076028;28;20031;-49
